Time;durP1;ratioP1;P1;durP2;ratioP2;P2;SDS_P1;SDS_P2;PMS_P1;PMS_P2;Temp;Humidity;BMP_temperature;BMP_pressure;BME280_temperature;BME280_humidity;BME280_pressure;Samples;Min_cycle;Max_cycle;Signal;HPM_P1;HPM_P2
2021/12/06 00:01:48;;;;;;;;;;;3.40;99.90;;;;;;5073357;28;19917;-86
2021/12/06 00:04:18;;;;;;;;;;;3.50;99.90;;;;;;5075123;28;19974;-84
2021/12/06 00:06:46;;;;;;;;;;;3.40;99.90;;;;;;5071870;28;19912;-83
2021/12/06 00:09:14;;;;;;;;;;;3.50;99.90;;;;;;5078900;28;19920;-86
2021/12/06 00:11:39;;;;;;;;;;;3.60;99.90;;;;;;5093148;28;19963;-86
2021/12/06 00:14:05;;;;;;;;;;;3.60;99.90;;;;;;5093079;28;19959;-87
2021/12/06 00:16:31;;;;;;;;;;;3.60;99.90;;;;;;5075051;28;19920;-88
2021/12/06 00:18:57;;;;;;;;;;;3.70;99.90;;;;;;5076766;28;19962;-85
2021/12/06 00:21:23;;;;;;;;;;;3.70;99.90;;;;;;5082312;28;19925;-86
2021/12/06 00:23:48;;;;;;;;;;;3.70;99.90;;;;;;5075213;28;19913;-77
2021/12/06 00:26:14;;;;;;;;;;;3.80;99.90;;;;;;5092183;28;19920;-86
2021/12/06 00:28:42;;;;;;;;;;;3.80;99.90;;;;;;5076604;28;19939;-87
2021/12/06 00:31:08;;;;;;;;;;;3.80;99.90;;;;;;5079437;28;19909;-88
2021/12/06 00:33:34;;;;;;;;;;;3.80;99.90;;;;;;5077378;28;20310;-84
2021/12/06 00:36:04;;;;;;;;;;;3.80;99.90;;;;;;5084158;28;19962;-86
2021/12/06 00:38:31;;;;;;;;;;;3.80;99.90;;;;;;5076839;28;20303;-88
2021/12/06 00:40:57;;;;;;;;;;;3.90;99.90;;;;;;5074104;28;20583;-87
2021/12/06 00:43:22;;;;;;;;;;;3.90;99.90;;;;;;5075826;28;19919;-87
2021/12/06 00:45:49;;;;;;;;;;;3.90;99.90;;;;;;5077081;28;19912;-86
2021/12/06 00:48:14;;;;;;;;;;;4.00;99.90;;;;;;5074898;28;19916;-86
2021/12/06 00:50:44;;;;;;;;;;;4.00;99.90;;;;;;5076549;28;19987;-86
2021/12/06 00:53:10;;;;;;;;;;;4.00;99.90;;;;;;5108646;27;19923;-87
2021/12/06 00:55:35;;;;;;;;;;;4.00;99.90;;;;;;5084502;28;20219;-88
2021/12/06 00:58:01;;;;;;;;;;;4.00;99.90;;;;;;5081820;28;19916;-87
2021/12/06 01:00:27;;;;;;;;;;;4.00;99.90;;;;;;5076275;28;20315;-86
2021/12/06 01:02:53;;;;;;;;;;;4.00;99.90;;;;;;5080643;28;19927;-85
2021/12/06 01:05:22;;;;;;;;;;;4.00;99.90;;;;;;5076452;28;19909;-86
2021/12/06 01:07:48;;;;;;;;;;;3.90;99.90;;;;;;5074481;28;19932;-86
2021/12/06 01:10:14;;;;;;;;;;;3.90;99.90;;;;;;5080516;28;19913;-85
2021/12/06 01:12:40;;;;;;;;;;;3.90;99.90;;;;;;5069501;28;20261;-85
2021/12/06 01:15:06;;;;;;;;;;;3.90;99.90;;;;;;5079944;28;19913;-84
2021/12/06 01:17:31;;;;;;;;;;;3.80;99.90;;;;;;5074421;28;19923;-85
2021/12/06 01:19:57;;;;;;;;;;;3.80;99.90;;;;;;5069968;28;19917;-87
2021/12/06 01:22:39;;;;;;;;;;;3.80;99.90;;;;;;5074512;28;19920;-85
2021/12/06 01:25:17;;;;;;;;;;;3.80;99.90;;;;;;5073319;28;19913;-86
2021/12/06 01:30:35;;;;;;;;;;;3.80;99.90;;;;;;5077471;28;19977;-81
2021/12/06 01:41:14;;;;;;;;;;;3.80;99.90;;;;;;5083212;28;20218;-84
2021/12/06 01:43:58;;;;;;;;;;;3.80;99.90;;;;;;5087024;28;19917;-85
2021/12/06 01:46:24;;;;;;;;;;;3.80;99.90;;;;;;5074538;28;19920;-86
2021/12/06 01:48:49;;;;;;;;;;;3.80;99.90;;;;;;5087560;28;19913;-86
2021/12/06 01:51:15;;;;;;;;;;;3.90;99.90;;;;;;5075933;28;20259;-86
2021/12/06 01:53:40;;;;;;;;;;;4.00;99.90;;;;;;5083892;28;19912;-86
2021/12/06 01:56:06;;;;;;;;;;;4.10;99.90;;;;;;5075451;28;19960;-87
2021/12/06 01:58:31;;;;;;;;;;;4.10;99.90;;;;;;5075591;28;19913;-86
2021/12/06 02:00:57;;;;;;;;;;;4.10;99.90;;;;;;5087237;28;19962;-86
2021/12/06 02:03:23;;;;;;;;;;;4.10;99.90;;;;;;5064127;28;19963;-86
2021/12/06 02:05:48;;;;;;;;;;;4.10;99.90;;;;;;5073515;28;19970;-86
2021/12/06 02:08:14;;;;;;;;;;;4.00;99.90;;;;;;5075851;28;19916;-83
2021/12/06 02:10:40;;;;;;;;;;;3.90;99.90;;;;;;5083904;28;19919;-85
2021/12/06 02:13:08;;;;;;;;;;;3.90;99.90;;;;;;5075283;28;19913;-85
2021/12/06 02:18:13;;;;;;;;;;;3.90;99.90;;;;;;5083834;28;19971;-85
2021/12/06 02:20:50;;;;;;;;;;;3.90;99.90;;;;;;5089548;28;20319;-84
2021/12/06 02:23:17;;;;;;;;;;;4.00;99.90;;;;;;5080078;28;19913;-83
2021/12/06 02:25:42;;;;;;;;;;;4.10;99.90;;;;;;5090709;28;19908;-84
2021/12/06 02:28:08;;;;;;;;;;;4.20;99.90;;;;;;5087998;28;19951;-85
2021/12/06 02:30:34;;;;;;;;;;;4.20;99.90;;;;;;5072485;28;19919;-84
2021/12/06 02:33:00;;;;;;;;;;;4.20;99.90;;;;;;5088821;28;19917;-85
2021/12/06 02:35:26;;;;;;;;;;;4.10;99.90;;;;;;5065130;28;19999;-86
2021/12/06 02:37:52;;;;;;;;;;;4.10;99.90;;;;;;5082671;28;19912;-86
2021/12/06 02:40:20;;;;;;;;;;;4.10;99.90;;;;;;5094130;28;19930;-84
2021/12/06 02:42:46;;;;;;;;;;;4.10;99.90;;;;;;5083402;28;19999;-78
2021/12/06 02:45:14;;;;;;;;;;;4.10;99.90;;;;;;5080541;28;19995;-86
2021/12/06 02:47:40;;;;;;;;;;;4.00;99.90;;;;;;5115703;27;20325;-86
2021/12/06 02:50:08;;;;;;;;;;;4.00;99.90;;;;;;5073643;28;19916;-78
2021/12/06 02:52:34;;;;;;;;;;;4.00;99.90;;;;;;5077433;28;20261;-86
2021/12/06 02:55:07;;;;;;;;;;;4.00;99.90;;;;;;5078367;28;19962;-86
2021/12/06 02:57:37;;;;;;;;;;;3.90;99.90;;;;;;5077741;28;19947;-80
2021/12/06 03:00:10;;;;;;;;;;;4.00;99.90;;;;;;5111736;28;20007;-84
2021/12/06 03:02:36;;;;;;;;;;;4.00;99.90;;;;;;5078118;28;19919;-88
2021/12/06 03:05:02;;;;;;;;;;;3.90;99.90;;;;;;5086250;28;19995;-89
2021/12/06 03:07:28;;;;;;;;;;;3.90;99.90;;;;;;5083010;28;19915;-88
2021/12/06 03:09:55;;;;;;;;;;;3.90;99.90;;;;;;5092088;28;20011;-88
2021/12/06 03:12:23;;;;;;;;;;;3.90;99.90;;;;;;5090298;28;19912;-88
2021/12/06 03:14:50;;;;;;;;;;;3.80;99.90;;;;;;5077501;28;19912;-88
2021/12/06 03:17:16;;;;;;;;;;;3.80;99.90;;;;;;5077756;28;19913;-87
2021/12/06 03:19:42;;;;;;;;;;;3.80;99.90;;;;;;5077476;28;19916;-89
2021/12/06 03:22:09;;;;;;;;;;;3.80;99.90;;;;;;5078790;28;19916;-87
2021/12/06 03:24:35;;;;;;;;;;;3.70;99.90;;;;;;5077128;28;19916;-87
2021/12/06 03:27:00;;;;;;;;;;;3.70;99.90;;;;;;5079666;28;19912;-86
2021/12/06 03:29:26;;;;;;;;;;;3.70;99.90;;;;;;5083271;28;19912;-87
2021/12/06 03:31:52;;;;;;;;;;;3.70;99.90;;;;;;5071836;28;19920;-86
2021/12/06 03:34:18;;;;;;;;;;;3.70;99.90;;;;;;5079124;28;19916;-78
2021/12/06 03:36:44;;;;;;;;;;;3.60;99.90;;;;;;5077858;28;19939;-86
2021/12/06 03:39:13;;;;;;;;;;;3.60;99.90;;;;;;5079344;28;19924;-89
2021/12/06 03:41:39;;;;;;;;;;;3.60;99.90;;;;;;5082768;28;19916;-85
2021/12/06 03:44:05;;;;;;;;;;;3.50;99.90;;;;;;5092704;28;19912;-87
2021/12/06 03:46:32;;;;;;;;;;;3.50;99.90;;;;;;5083453;28;19912;-87
2021/12/06 03:48:57;;;;;;;;;;;3.50;99.90;;;;;;5076175;28;20011;-80
2021/12/06 03:51:23;;;;;;;;;;;3.50;99.90;;;;;;5081161;28;19940;-82
2021/12/06 03:53:49;;;;;;;;;;;3.50;99.90;;;;;;5087213;28;19916;-86
2021/12/06 03:56:15;;;;;;;;;;;3.50;99.90;;;;;;5088563;28;19919;-87
2021/12/06 03:58:43;;;;;;;;;;;3.50;99.90;;;;;;5076384;28;19919;-82
2021/12/06 04:01:09;;;;;;;;;;;3.50;99.90;;;;;;5076318;28;19916;-86
2021/12/06 04:03:36;;;;;;;;;;;3.50;99.90;;;;;;5083499;28;19973;-86
2021/12/06 04:06:02;;;;;;;;;;;3.50;99.90;;;;;;5084807;28;19912;-87
2021/12/06 04:08:28;;;;;;;;;;;3.50;99.90;;;;;;5076689;28;19912;-87
2021/12/06 04:10:55;;;;;;;;;;;3.40;99.90;;;;;;5080774;28;19923;-82
2021/12/06 04:13:20;;;;;;;;;;;3.40;99.90;;;;;;5078417;28;20298;-86
2021/12/06 04:15:46;;;;;;;;;;;3.30;99.90;;;;;;5078909;28;19966;-86
2021/12/06 04:18:12;;;;;;;;;;;3.40;99.90;;;;;;5079788;28;19977;-86
2021/12/06 04:20:37;;;;;;;;;;;3.40;99.90;;;;;;5096875;28;19920;-87
2021/12/06 04:23:04;;;;;;;;;;;3.40;99.90;;;;;;5078094;28;19978;-84
2021/12/06 04:25:30;;;;;;;;;;;3.40;99.90;;;;;;5076425;28;19912;-87
2021/12/06 04:27:59;;;;;;;;;;;3.40;99.90;;;;;;5075717;28;20386;-88
2021/12/06 04:30:26;;;;;;;;;;;3.40;99.90;;;;;;5083506;28;20003;-87
2021/12/06 04:32:52;;;;;;;;;;;3.30;99.90;;;;;;5076267;28;19913;-89
2021/12/06 04:35:18;;;;;;;;;;;3.40;99.90;;;;;;5076284;28;19919;-89
2021/12/06 04:37:44;;;;;;;;;;;3.40;99.90;;;;;;5075259;28;19942;-82
2021/12/06 04:40:10;;;;;;;;;;;3.40;99.90;;;;;;5076633;28;19928;-91
2021/12/06 04:42:35;;;;;;;;;;;3.50;99.90;;;;;;5071432;28;19920;-90
2021/12/06 04:45:01;;;;;;;;;;;3.50;99.90;;;;;;5075146;28;19909;-90
2021/12/06 04:47:27;;;;;;;;;;;3.40;99.90;;;;;;5076182;28;19938;-88
2021/12/06 04:49:53;;;;;;;;;;;3.40;99.90;;;;;;5075107;28;20366;-88
2021/12/06 04:52:19;;;;;;;;;;;3.40;99.90;;;;;;5076042;28;19920;-88
2021/12/06 04:54:47;;;;;;;;;;;3.40;99.90;;;;;;5075478;28;19965;-86
2021/12/06 04:57:18;;;;;;;;;;;3.40;99.90;;;;;;5092482;28;19912;-87
2021/12/06 04:59:46;;;;;;;;;;;3.50;99.90;;;;;;5077486;28;19920;-89
2021/12/06 05:02:15;;;;;;;;;;;3.40;99.90;;;;;;5088228;28;19916;-87
2021/12/06 05:04:47;;;;;;;;;;;3.40;99.90;;;;;;5089508;28;19917;-86
2021/12/06 05:07:18;;;;;;;;;;;3.40;99.90;;;;;;5074023;28;19920;-88
2021/12/06 05:09:44;;;;;;;;;;;3.50;99.90;;;;;;5075951;28;20000;-78
2021/12/06 05:12:12;;;;;;;;;;;3.50;99.90;;;;;;5081418;28;19912;-87
2021/12/06 05:14:38;;;;;;;;;;;3.40;99.90;;;;;;5102417;27;20271;-86
2021/12/06 05:17:04;;;;;;;;;;;3.40;99.90;;;;;;5075055;28;19913;-86
2021/12/06 05:19:30;;;;;;;;;;;3.40;99.90;;;;;;5071583;28;19958;-87
2021/12/06 05:21:55;;;;;;;;;;;3.50;99.90;;;;;;5070840;28;20188;-88
2021/12/06 05:24:21;;;;;;;;;;;3.40;99.90;;;;;;5064237;28;20289;-88
2021/12/06 05:26:47;;;;;;;;;;;3.40;99.90;;;;;;5064536;28;20315;-89
2021/12/06 05:29:14;;;;;;;;;;;3.40;99.90;;;;;;5082999;28;20266;-91
2021/12/06 05:31:41;;;;;;;;;;;3.40;99.90;;;;;;5071455;28;20304;-91
2021/12/06 05:34:13;;;;;;;;;;;3.30;99.90;;;;;;5086966;28;20317;-91
2021/12/06 05:36:39;;;;;;;;;;;3.40;99.90;;;;;;5071870;28;20204;-89
2021/12/06 05:39:06;;;;;;;;;;;3.40;99.90;;;;;;5069380;28;20026;-87
2021/12/06 05:41:33;;;;;;;;;;;3.30;99.90;;;;;;5071041;28;19916;-89
2021/12/06 05:43:59;;;;;;;;;;;3.30;99.90;;;;;;5063230;28;20325;-88
2021/12/06 05:46:24;;;;;;;;;;;3.30;99.90;;;;;;5071962;28;19992;-87
2021/12/06 05:48:50;;;;;;;;;;;3.30;99.90;;;;;;5061919;28;19913;-88
2021/12/06 05:51:15;;;;;;;;;;;3.30;99.90;;;;;;5067908;28;19967;-89
2021/12/06 05:53:41;;;;;;;;;;;3.30;99.90;;;;;;5082329;28;19948;-90
2021/12/06 05:56:07;;;;;;;;;;;3.30;99.90;;;;;;5070598;28;19908;-81
2021/12/06 05:58:34;;;;;;;;;;;3.30;99.90;;;;;;5068109;28;19974;-89
2021/12/06 06:01:01;;;;;;;;;;;3.30;99.90;;;;;;5076782;28;19966;-90
2021/12/06 06:03:27;;;;;;;;;;;3.20;99.90;;;;;;5073356;28;19912;-89
2021/12/06 06:05:53;;;;;;;;;;;3.20;99.90;;;;;;5088533;28;20215;-90
2021/12/06 06:08:18;;;;;;;;;;;3.20;99.90;;;;;;5079893;28;19913;-90
2021/12/06 06:10:47;;;;;;;;;;;3.20;99.90;;;;;;5087515;28;19955;-89
2021/12/06 06:13:13;;;;;;;;;;;3.20;99.90;;;;;;5071997;28;19913;-89
2021/12/06 06:15:38;;;;;;;;;;;3.20;99.90;;;;;;5071373;28;19961;-88
2021/12/06 06:18:05;;;;;;;;;;;3.30;99.90;;;;;;5073979;28;19916;-86
2021/12/06 06:20:36;;;;;;;;;;;3.30;99.90;;;;;;5074849;28;19913;-89
2021/12/06 06:23:02;;;;;;;;;;;3.30;99.90;;;;;;5071753;28;20049;-89
2021/12/06 06:25:28;;;;;;;;;;;3.30;99.90;;;;;;5066960;28;19995;-89
2021/12/06 06:27:54;;;;;;;;;;;3.30;99.90;;;;;;5070886;28;20357;-92
2021/12/06 06:30:19;;;;;;;;;;;3.40;99.90;;;;;;5066993;28;19908;-89
2021/12/06 06:32:46;;;;;;;;;;;3.30;99.90;;;;;;5076375;28;19912;-87
2021/12/06 06:35:13;;;;;;;;;;;3.20;99.90;;;;;;5073352;28;20314;-88
2021/12/06 06:37:38;;;;;;;;;;;3.30;99.90;;;;;;5074419;28;20299;-87
2021/12/06 06:40:05;;;;;;;;;;;3.30;99.90;;;;;;5075877;28;19928;-86
2021/12/06 06:42:31;;;;;;;;;;;3.30;99.90;;;;;;5064978;28;19913;-89
2021/12/06 06:44:56;;;;;;;;;;;3.30;99.90;;;;;;5076701;28;19912;-89
2021/12/06 06:47:23;;;;;;;;;;;3.30;99.90;;;;;;5063582;28;19962;-89
2021/12/06 06:49:49;;;;;;;;;;;3.30;99.90;;;;;;5073956;28;20188;-92
2021/12/06 06:52:15;;;;;;;;;;;3.30;99.90;;;;;;5065360;28;19922;-88
2021/12/06 06:54:41;;;;;;;;;;;3.30;99.90;;;;;;5072532;28;19958;-88
2021/12/06 06:57:07;;;;;;;;;;;3.30;99.90;;;;;;5105270;28;19916;-91
2021/12/06 06:59:32;;;;;;;;;;;3.30;99.90;;;;;;5069149;28;20307;-90
2021/12/06 07:01:58;;;;;;;;;;;3.30;99.90;;;;;;5075492;28;19912;-90
2021/12/06 07:04:24;;;;;;;;;;;3.30;99.90;;;;;;5072576;28;19909;-78
2021/12/06 07:06:51;;;;;;;;;;;3.30;99.90;;;;;;5068836;28;19965;-89
2021/12/06 07:09:17;;;;;;;;;;;3.30;99.90;;;;;;5082311;28;19920;-91
2021/12/06 07:11:45;;;;;;;;;;;3.30;99.90;;;;;;5068014;28;19952;-88
2021/12/06 07:14:11;;;;;;;;;;;3.40;99.90;;;;;;5080224;28;19912;-90
2021/12/06 07:16:37;;;;;;;;;;;3.40;99.90;;;;;;5071037;28;20318;-89
2021/12/06 07:19:02;;;;;;;;;;;3.40;99.90;;;;;;5075408;28;19916;-86
2021/12/06 07:21:28;;;;;;;;;;;3.30;99.90;;;;;;5068940;28;19923;-86
2021/12/06 07:23:53;;;;;;;;;;;3.40;99.90;;;;;;5085111;28;19932;-79
2021/12/06 07:26:21;;;;;;;;;;;3.30;99.90;;;;;;5067895;28;19982;-87
2021/12/06 07:28:48;;;;;;;;;;;3.40;99.90;;;;;;5080157;28;19913;-88
2021/12/06 07:31:14;;;;;;;;;;;3.40;99.90;;;;;;5094681;28;19912;-86
2021/12/06 07:33:42;;;;;;;;;;;3.40;99.90;;;;;;5070469;28;19920;-84
2021/12/06 07:36:08;;;;;;;;;;;3.40;99.90;;;;;;5081505;28;19916;-78
2021/12/06 07:38:37;;;;;;;;;;;3.40;99.90;;;;;;5083170;28;19923;-83
2021/12/06 07:41:07;;;;;;;;;;;3.40;99.90;;;;;;5083246;28;19963;-84
2021/12/06 07:43:33;;;;;;;;;;;3.40;99.90;;;;;;5085110;28;19923;-84
2021/12/06 07:45:59;;;;;;;;;;;3.40;99.90;;;;;;5080404;28;19912;-86
2021/12/06 07:48:24;;;;;;;;;;;3.40;99.90;;;;;;5093970;28;20435;-87
2021/12/06 07:50:50;;;;;;;;;;;3.40;99.90;;;;;;5075821;28;19935;-88
2021/12/06 07:53:16;;;;;;;;;;;3.30;99.90;;;;;;5077800;28;19919;-88
2021/12/06 07:55:41;;;;;;;;;;;3.30;99.90;;;;;;5078692;28;19957;-88
2021/12/06 07:58:08;;;;;;;;;;;3.30;99.90;;;;;;5079256;28;19920;-85
2021/12/06 08:00:36;;;;;;;;;;;3.30;99.90;;;;;;5078862;28;19920;-90
2021/12/06 08:03:01;;;;;;;;;;;3.30;99.90;;;;;;5074422;28;19916;-90
2021/12/06 08:05:30;;;;;;;;;;;3.30;99.90;;;;;;5080083;28;19927;-89
2021/12/06 08:07:57;;;;;;;;;;;3.30;99.90;;;;;;5078339;28;19926;-89
2021/12/06 08:10:23;;;;;;;;;;;3.30;99.90;;;;;;5089025;28;20286;-90
2021/12/06 08:12:48;;;;;;;;;;;3.30;99.90;;;;;;5080024;28;19924;-91
2021/12/06 08:15:14;;;;;;;;;;;3.30;99.90;;;;;;5078369;28;19920;-87
2021/12/06 08:17:40;;;;;;;;;;;3.20;99.90;;;;;;5080452;28;20200;-89
2021/12/06 08:20:07;;;;;;;;;;;3.30;99.90;;;;;;5093577;28;19956;-90
2021/12/06 08:22:33;;;;;;;;;;;3.30;99.90;;;;;;5078220;28;19923;-88
2021/12/06 08:24:58;;;;;;;;;;;3.30;99.90;;;;;;5078647;28;19912;-88
2021/12/06 08:27:24;;;;;;;;;;;3.30;99.90;;;;;;5076348;28;20487;-85
2021/12/06 08:29:49;;;;;;;;;;;3.30;99.90;;;;;;5071641;28;20315;-80
2021/12/06 08:32:15;;;;;;;;;;;3.30;99.90;;;;;;5077549;28;19974;-84
2021/12/06 08:34:41;;;;;;;;;;;3.40;99.90;;;;;;5077157;28;20311;-88
2021/12/06 08:37:10;;;;;;;;;;;3.40;99.90;;;;;;5054421;28;20355;-87
2021/12/06 08:39:36;;;;;;;;;;;3.40;99.90;;;;;;5075087;28;19928;-86
2021/12/06 08:42:02;;;;;;;;;;;3.40;99.90;;;;;;5079437;28;20479;-86
2021/12/06 08:44:27;;;;;;;;;;;3.40;99.90;;;;;;5082077;28;19951;-88
2021/12/06 08:46:53;;;;;;;;;;;3.40;99.90;;;;;;5083924;28;19923;-86
2021/12/06 08:49:19;;;;;;;;;;;3.40;99.90;;;;;;5080436;28;19916;-89
2021/12/06 08:51:47;;;;;;;;;;;3.40;99.90;;;;;;5099925;28;19923;-87
2021/12/06 08:54:14;;;;;;;;;;;3.40;99.90;;;;;;5079737;28;19920;-88
2021/12/06 08:56:40;;;;;;;;;;;3.50;99.90;;;;;;5077799;28;19927;-88
2021/12/06 08:59:06;;;;;;;;;;;3.50;99.90;;;;;;5077837;28;19921;-89
2021/12/06 09:01:33;;;;;;;;;;;3.50;99.90;;;;;;5082412;28;20007;-91
2021/12/06 09:03:58;;;;;;;;;;;3.50;99.90;;;;;;5080557;28;19921;-89
2021/12/06 09:06:24;;;;;;;;;;;3.50;99.90;;;;;;5081320;28;19928;-89
2021/12/06 09:08:50;;;;;;;;;;;3.60;99.90;;;;;;5079903;28;19927;-89
2021/12/06 09:11:15;;;;;;;;;;;3.60;99.90;;;;;;5081671;28;19912;-88
2021/12/06 09:13:41;;;;;;;;;;;3.60;99.90;;;;;;5080452;28;19924;-88
2021/12/06 09:16:08;;;;;;;;;;;3.60;99.90;;;;;;5078760;28;19938;-87
2021/12/06 09:18:37;;;;;;;;;;;3.50;99.90;;;;;;5096997;28;19920;-82
2021/12/06 09:36:30;;;;;;;;;;;3.50;99.90;;;;;;5075713;28;20486;-87
2021/12/06 09:38:55;;;;;;;;;;;3.50;99.90;;;;;;5052548;28;20226;-88
2021/12/06 09:41:27;;;;;;;;;;;3.50;99.90;;;;;;5078393;28;20453;-88
2021/12/06 09:43:54;;;;;;;;;;;3.60;99.90;;;;;;5073117;28;19916;-89
2021/12/06 09:46:20;;;;;;;;;;;3.60;99.90;;;;;;5093574;28;19958;-87
2021/12/06 09:48:46;;;;;;;;;;;3.60;99.90;;;;;;5078168;28;19928;-87
2021/12/06 09:51:14;;;;;;;;;;;3.60;99.90;;;;;;5079347;28;19923;-85
2021/12/06 09:53:41;;;;;;;;;;;3.70;99.90;;;;;;5077216;28;19916;-88
2021/12/06 09:56:08;;;;;;;;;;;3.70;99.90;;;;;;5078359;28;19925;-87
2021/12/06 09:58:34;;;;;;;;;;;3.70;99.90;;;;;;5079719;28;20711;-79
2021/12/06 10:01:03;;;;;;;;;;;3.70;99.90;;;;;;5079759;28;19934;-89
2021/12/06 10:03:29;;;;;;;;;;;3.70;99.90;;;;;;5095252;28;19917;-88
2021/12/06 10:06:02;;;;;;;;;;;3.60;99.90;;;;;;5091907;28;19916;-87
2021/12/06 10:08:32;;;;;;;;;;;3.70;99.90;;;;;;5094011;28;19916;-88
2021/12/06 10:10:58;;;;;;;;;;;3.70;99.90;;;;;;5077437;28;19916;-87
2021/12/06 10:13:24;;;;;;;;;;;3.70;99.90;;;;;;5088327;28;20264;-89
2021/12/06 10:15:51;;;;;;;;;;;3.70;99.90;;;;;;5083243;28;19916;-88
2021/12/06 10:18:18;;;;;;;;;;;3.70;99.90;;;;;;5082753;28;20286;-87
2021/12/06 10:20:44;;;;;;;;;;;3.80;99.90;;;;;;5080022;28;20059;-83
2021/12/06 10:23:11;;;;;;;;;;;3.70;99.90;;;;;;5084293;28;19917;-90
2021/12/06 10:25:38;;;;;;;;;;;3.70;99.90;;;;;;5082674;28;19995;-78
2021/12/06 10:28:05;;;;;;;;;;;3.70;99.90;;;;;;5080100;28;19951;-80
2021/12/06 10:30:35;;;;;;;;;;;3.70;99.90;;;;;;5085853;28;20226;-90
2021/12/06 10:33:11;;;;;;;;;;;3.70;99.90;;;;;;5077755;28;19916;-89
2021/12/06 10:35:45;;;;;;;;;;;3.70;99.90;;;;;;5082006;28;19912;-90
2021/12/06 10:38:11;;;;;;;;;;;3.70;99.90;;;;;;5075194;28;19932;-88
2021/12/06 10:40:39;;;;;;;;;;;3.60;99.90;;;;;;5077026;28;19931;-87
2021/12/06 10:43:06;;;;;;;;;;;3.70;99.90;;;;;;5071729;28;19965;-82
2021/12/06 10:45:36;;;;;;;;;;;3.80;99.90;;;;;;5084319;28;20397;-88
2021/12/06 10:48:16;;;;;;;;;;;3.70;99.90;;;;;;5086707;28;20429;-85
2021/12/06 10:50:51;;;;;;;;;;;3.80;99.90;;;;;;5084511;28;19936;-89
2021/12/06 10:53:26;;;;;;;;;;;3.80;99.90;;;;;;5085888;28;19969;-86
2021/12/06 10:55:53;;;;;;;;;;;3.80;99.90;;;;;;5084864;28;19959;-87
2021/12/06 10:58:20;;;;;;;;;;;3.80;99.90;;;;;;5080906;28;19912;-86
2021/12/06 11:00:55;;;;;;;;;;;3.90;99.90;;;;;;5078428;28;19961;-81
2021/12/06 11:03:23;;;;;;;;;;;3.90;99.90;;;;;;5079681;28;19916;-83
2021/12/06 11:05:57;;;;;;;;;;;3.90;99.90;;;;;;5075789;28;19916;-85
2021/12/06 11:08:23;;;;;;;;;;;3.80;99.90;;;;;;5075115;28;19966;-79
2021/12/06 11:10:50;;;;;;;;;;;3.80;99.90;;;;;;5080228;28;19913;-86
2021/12/06 11:13:20;;;;;;;;;;;3.80;99.90;;;;;;5080680;28;19916;-84
2021/12/06 11:15:56;;;;;;;;;;;3.70;99.90;;;;;;5086563;28;19920;-80
2021/12/06 11:18:40;;;;;;;;;;;3.70;99.90;;;;;;5096244;28;20311;-86
2021/12/06 11:21:16;;;;;;;;;;;3.80;99.90;;;;;;5079333;28;20021;-82
2021/12/06 11:23:58;;;;;;;;;;;3.80;99.90;;;;;;5102934;28;19917;-86
2021/12/06 11:26:24;;;;;;;;;;;3.80;99.90;;;;;;5097255;28;19920;-84
2021/12/06 11:28:50;;;;;;;;;;;3.80;99.90;;;;;;5078453;28;20360;-78
2021/12/06 11:31:16;;;;;;;;;;;3.90;99.90;;;;;;5088397;28;19923;-89
2021/12/06 11:33:42;;;;;;;;;;;3.90;99.90;;;;;;5085766;28;20040;-88
2021/12/06 11:36:18;;;;;;;;;;;3.90;99.90;;;;;;5084740;28;20008;-88
2021/12/06 11:38:48;;;;;;;;;;;4.00;99.90;;;;;;5082767;28;19924;-82
2021/12/06 11:41:14;;;;;;;;;;;4.10;99.90;;;;;;5083812;28;20306;-80
2021/12/06 11:43:39;;;;;;;;;;;4.00;99.90;;;;;;5080842;28;19924;-85
2021/12/06 11:46:08;;;;;;;;;;;4.10;99.90;;;;;;5085418;28;19923;-87
2021/12/06 11:48:36;;;;;;;;;;;4.00;99.90;;;;;;5085978;28;19920;-80
2021/12/06 11:51:05;;;;;;;;;;;4.00;99.90;;;;;;5082097;28;20329;-80
2021/12/06 11:53:32;;;;;;;;;;;4.10;99.90;;;;;;5084118;28;19916;-80
2021/12/06 11:56:07;;;;;;;;;;;4.10;99.90;;;;;;5083944;28;19916;-86
2021/12/06 11:58:35;;;;;;;;;;;4.10;99.90;;;;;;5083260;28;19963;-83
2021/12/06 12:01:12;;;;;;;;;;;4.10;99.90;;;;;;5068534;28;20691;-81
2021/12/06 12:03:39;;;;;;;;;;;4.20;99.90;;;;;;5079759;28;19912;-79
2021/12/06 12:06:20;;;;;;;;;;;4.10;99.90;;;;;;5080360;28;20309;-84
2021/12/06 12:08:46;;;;;;;;;;;4.20;99.90;;;;;;5081364;28;20500;-83
2021/12/06 12:11:12;;;;;;;;;;;4.20;99.90;;;;;;5077743;28;20022;-83
2021/12/06 12:13:37;;;;;;;;;;;4.20;99.90;;;;;;5095706;28;20451;-84
2021/12/06 12:16:08;;;;;;;;;;;4.30;99.90;;;;;;5083219;28;19920;-80
2021/12/06 12:18:36;;;;;;;;;;;4.40;99.90;;;;;;5076736;28;19948;-79
2021/12/06 12:21:02;;;;;;;;;;;4.40;99.90;;;;;;5087453;28;20582;-86
2021/12/06 12:23:32;;;;;;;;;;;4.40;99.90;;;;;;5097025;28;20350;-85
2021/12/06 12:26:10;;;;;;;;;;;4.40;99.90;;;;;;5078887;28;20273;-79
2021/12/06 12:28:40;;;;;;;;;;;4.40;99.90;;;;;;5082955;28;19916;-84
2021/12/06 12:31:08;;;;;;;;;;;4.30;99.90;;;;;;5082870;28;20005;-81
2021/12/06 12:33:35;;;;;;;;;;;4.30;99.90;;;;;;5082093;28;20015;-84
2021/12/06 12:36:06;;;;;;;;;;;4.20;99.90;;;;;;5080025;28;20365;-81
2021/12/06 12:38:34;;;;;;;;;;;4.10;99.90;;;;;;5093791;28;19912;-86
2021/12/06 12:41:01;;;;;;;;;;;4.10;99.90;;;;;;5079209;28;19932;-79
2021/12/06 12:43:33;;;;;;;;;;;4.10;99.90;;;;;;5079904;28;19923;-87
2021/12/06 12:46:03;;;;;;;;;;;4.10;99.90;;;;;;5080857;28;20572;-86
2021/12/06 12:48:42;;;;;;;;;;;4.10;99.90;;;;;;5079744;28;19916;-87
2021/12/06 12:51:10;;;;;;;;;;;4.10;99.90;;;;;;5075565;28;20015;-85
2021/12/06 12:53:54;;;;;;;;;;;4.10;99.90;;;;;;5090105;28;20280;-80
2021/12/06 12:56:22;;;;;;;;;;;4.10;99.90;;;;;;5072219;28;19966;-79
2021/12/06 12:58:48;;;;;;;;;;;4.00;99.90;;;;;;5078148;28;20555;-80
2021/12/06 13:01:14;;;;;;;;;;;4.00;99.90;;;;;;5065375;28;19920;-86
2021/12/06 13:03:49;;;;;;;;;;;4.00;99.90;;;;;;5066336;28;19965;-87
2021/12/06 13:06:15;;;;;;;;;;;4.00;99.90;;;;;;5071266;28;19928;-85
2021/12/06 13:08:40;;;;;;;;;;;4.10;99.90;;;;;;5077586;28;19913;-87
2021/12/06 13:11:06;;;;;;;;;;;4.10;99.90;;;;;;5074309;28;20299;-83
2021/12/06 13:13:38;;;;;;;;;;;4.10;99.90;;;;;;5072212;28;19913;-84
2021/12/06 13:16:12;;;;;;;;;;;4.10;99.90;;;;;;5089185;22;20270;-86
2021/12/06 13:18:50;;;;;;;;;;;4.10;99.90;;;;;;5051314;28;20277;-85
2021/12/06 13:21:57;;;;;;;;;;;4.10;99.90;;;;;;5052712;28;20011;-87
2021/12/06 13:24:27;;;;;;;;;;;4.00;99.90;;;;;;5033298;28;19917;-82
2021/12/06 13:26:57;;;;;;;;;;;4.00;99.90;;;;;;5035581;28;19908;-78
2021/12/06 13:29:23;;;;;;;;;;;4.00;99.90;;;;;;5033857;28;19916;-84
2021/12/06 13:31:50;;;;;;;;;;;4.00;99.90;;;;;;5047708;28;20335;-87
2021/12/06 13:34:15;;;;;;;;;;;4.00;99.90;;;;;;5035097;28;19960;-81
2021/12/06 13:36:42;;;;;;;;;;;4.00;99.90;;;;;;5042683;28;19940;-79
2021/12/06 13:39:34;;;;;;;;;;;3.90;99.90;;;;;;5052104;28;19921;-86
2021/12/06 13:42:01;;;;;;;;;;;3.90;99.90;;;;;;5047283;28;19948;-80
2021/12/06 13:44:37;;;;;;;;;;;3.80;99.90;;;;;;5032732;28;20307;-80
2021/12/06 13:47:14;;;;;;;;;;;3.80;99.90;;;;;;5048389;28;19913;-80
2021/12/06 13:49:50;;;;;;;;;;;3.80;99.90;;;;;;5050976;28;20260;-84
2021/12/06 13:52:15;;;;;;;;;;;3.70;99.90;;;;;;5050929;28;20376;-79
2021/12/06 13:54:44;;;;;;;;;;;3.70;99.90;;;;;;5051025;28;19920;-80
2021/12/06 13:57:11;;;;;;;;;;;3.70;99.90;;;;;;5046100;28;19940;-87
2021/12/06 13:59:43;;;;;;;;;;;3.70;99.90;;;;;;5045367;28;19960;-79
2021/12/06 14:02:10;;;;;;;;;;;3.70;99.90;;;;;;5048555;28;19921;-81
2021/12/06 14:04:37;;;;;;;;;;;3.70;99.90;;;;;;5037607;28;19963;-79
2021/12/06 14:07:05;;;;;;;;;;;3.60;99.90;;;;;;5052296;28;20345;-80
2021/12/06 14:09:34;;;;;;;;;;;3.60;99.90;;;;;;5048144;28;19924;-86
2021/12/06 14:12:01;;;;;;;;;;;3.60;99.90;;;;;;5040657;28;19919;-86
2021/12/06 14:14:28;;;;;;;;;;;3.50;99.90;;;;;;5049285;28;20217;-88
2021/12/06 14:16:54;;;;;;;;;;;3.50;99.90;;;;;;5045599;28;19952;-88
2021/12/06 14:19:23;;;;;;;;;;;3.50;99.90;;;;;;5052468;28;19920;-89
2021/12/06 14:21:51;;;;;;;;;;;3.40;99.90;;;;;;5070785;28;19924;-81
2021/12/06 14:24:16;;;;;;;;;;;3.40;99.90;;;;;;5048070;28;19913;-85
2021/12/06 14:26:44;;;;;;;;;;;3.40;99.90;;;;;;5047132;28;20331;-87
2021/12/06 14:29:16;;;;;;;;;;;3.40;99.90;;;;;;5048975;28;19920;-82
2021/12/06 14:31:43;;;;;;;;;;;3.40;99.90;;;;;;5046794;28;19916;-86
2021/12/06 14:34:09;;;;;;;;;;;3.40;99.90;;;;;;5047833;28;20235;-82
2021/12/06 14:36:35;;;;;;;;;;;3.40;99.90;;;;;;5053633;28;19921;-83
2021/12/06 14:39:27;;;;;;;;;;;3.30;99.90;;;;;;5053358;28;19959;-83
2021/12/06 14:42:04;;;;;;;;;;;3.30;99.90;;;;;;5054466;28;19916;-88
2021/12/06 14:44:38;;;;;;;;;;;3.20;99.90;;;;;;5051354;28;19917;-87
2021/12/06 14:47:10;;;;;;;;;;;3.20;99.90;;;;;;5049457;28;19917;-84
2021/12/06 14:49:36;;;;;;;;;;;3.20;99.90;;;;;;5047683;28;20319;-79
2021/12/06 14:52:03;;;;;;;;;;;3.10;99.90;;;;;;5049748;28;20312;-89
2021/12/06 14:54:30;;;;;;;;;;;3.10;99.90;;;;;;5066241;28;20006;-85
2021/12/06 14:57:00;;;;;;;;;;;3.10;99.90;;;;;;5051295;28;20231;-88
2021/12/06 14:59:32;;;;;;;;;;;3.00;99.90;;;;;;5048311;28;20001;-79
2021/12/06 15:01:57;;;;;;;;;;;3.00;99.90;;;;;;5054524;28;19924;-80
2021/12/06 15:04:38;;;;;;;;;;;3.00;99.90;;;;;;5048565;28;19925;-86